LDZA/ZAG METAR and TAF weather

Enter ICAO airport designator
Station Type Date Time Source
LDZA METAR 2020/06/06 19:00 UTC NOAA

LDZA 061900Z 12003KT CAVOK 21/15 Q1006 NOSIG


Station Type Date Time Source
LDZA Decoded METAR 2020/06/06 19:00 UTC NOAA

Zagreb / Pleso, Croatia (LDZA) 45-44N 016-04E 107M
Jun 06, 2020 - 03:00 PM EDT / 2020.06.06 1900 UTC
Wind: from the ESE (120 degrees) at 3 MPH (3 KT):0
Visibility: greater than 7 mile(s):0
Temperature: 69 F (21 C)
Dew Point: 59 F (15 C)
Relative Humidity: 68%
Pressure (altimeter): 29.71 in. Hg (1006 hPa)
ob: LDZA 061900Z 12003KT CAVOK 21/15 Q1006 NOSIG
cycle: 19

Station Type Date Time Source
LDZA TAF 2020/06/06 18:29 UTC NOAA

TAF LDZA 061725Z 0618/0718 20005KT 9999 SCT045 TX27/0713Z TN14/0703Z PROB40 0623/0705 2000 MIFG BR PROB30
TEMPO 0700/0704 0500 FG
BECMG 0707/0709 22008KT PROB30
TEMPO 0713/0718 VRB15KT TSRA FEW035CB SCT040

Example: see airport list